createdAt,value
2018-12-17T00:02:14.954Z,88.20
2018-12-17T00:04:47.724Z,86.53
2018-12-17T00:07:20.404Z,82.57
2018-12-17T00:09:51.134Z,70.57
2018-12-17T00:12:22.122Z,82.17
2018-12-17T00:14:54.870Z,76.97
2018-12-17T00:17:28.540Z,73.13
2018-12-17T00:19:59.079Z,74.27
2018-12-17T00:22:29.667Z,70.87
2018-12-17T00:25:00.357Z,77.67
2018-12-17T00:27:30.898Z,69.80
2018-12-17T00:30:01.535Z,80.37
2018-12-17T00:32:32.382Z,76.73
2018-12-17T00:35:03.149Z,78.70
2018-12-17T00:37:33.883Z,83.77
2018-12-17T00:42:49.374Z,75.57
2018-12-17T00:45:20.370Z,74.53
2018-12-17T00:47:51.061Z,74.17
2018-12-17T00:50:21.557Z,83.87
2018-12-17T00:52:52.052Z,81.07
2018-12-17T00:55:22.549Z,76.73
2018-12-17T00:57:53.106Z,87.37
2018-12-17T01:00:23.617Z,100.73
2018-12-17T01:02:54.486Z,86.80
2018-12-17T01:05:25.018Z,91.03
2018-12-17T01:07:55.510Z,85.13
2018-12-17T01:10:26.042Z,90.27
2018-12-17T01:12:57.491Z,96.27
2018-12-17T01:15:27.957Z,84.90
2018-12-17T01:17:58.521Z,81.20
2018-12-17T01:20:28.962Z,82.60
2018-12-17T01:22:59.499Z,79.43
2018-12-17T01:25:30.024Z,78.97
2018-12-17T01:28:00.629Z,74.17
2018-12-17T01:30:31.251Z,78.27
2018-12-17T01:33:01.809Z,78.87
2018-12-17T01:35:32.340Z,82.40
2018-12-17T01:38:02.902Z,97.67
2018-12-17T01:40:33.598Z,95.20
2018-12-17T01:43:04.173Z,107.53
2018-12-17T01:45:34.721Z,88.27
2018-12-17T01:48:05.318Z,83.90
2018-12-17T01:50:35.852Z,81.73
2018-12-17T01:53:06.410Z,69.87
2018-12-17T01:55:37.212Z,72.87
2018-12-17T01:58:07.683Z,69.93
2018-12-17T02:00:39.462Z,79.37
2018-12-17T02:03:09.958Z,66.70
2018-12-17T02:05:40.539Z,76.03
2018-12-17T02:08:11.077Z,85.07
2018-12-17T02:10:48.143Z,86.77
2018-12-17T02:13:18.710Z,86.27
2018-12-17T02:15:49.202Z,77.80
2018-12-17T02:18:19.775Z,84.23
2018-12-17T02:20:50.269Z,74.10
2018-12-17T02:23:20.873Z,70.87
2018-12-17T02:25:51.538Z,78.27
2018-12-17T02:28:22.097Z,84.77
2018-12-17T02:30:52.613Z,97.27
2018-12-17T02:33:23.153Z,91.23
2018-12-17T02:35:53.663Z,80.60
2018-12-17T02:38:24.324Z,85.23
2018-12-17T02:40:54.882Z,78.60
2018-12-17T02:43:25.417Z,70.33
2018-12-17T02:45:55.912Z,69.70
2018-12-17T02:48:26.468Z,70.93
2018-12-17T02:50:57.060Z,74.27
2018-12-17T02:53:27.728Z,72.93
2018-12-17T02:55:58.246Z,79.10
2018-12-17T02:58:28.784Z,68.27
2018-12-17T03:00:59.333Z,67.17
2018-12-17T03:03:29.842Z,65.00
2018-12-17T03:06:00.609Z,67.70
2018-12-17T03:08:31.136Z,68.27
2018-12-17T03:11:01.710Z,74.87
2018-12-17T03:13:32.285Z,81.63
2018-12-17T03:16:02.880Z,91.50
2018-12-17T03:18:33.440Z,90.57
2018-12-17T03:21:04.031Z,83.30
2018-12-17T03:23:34.575Z,77.27
2018-12-17T03:26:05.108Z,73.90
2018-12-17T03:28:35.626Z,70.27
2018-12-17T03:31:06.195Z,73.07
2018-12-17T03:33:36.949Z,78.00
2018-12-17T03:36:07.486Z,73.17
2018-12-17T03:38:38.008Z,79.80
2018-12-17T03:41:08.614Z,78.63
2018-12-17T03:43:39.203Z,88.20
2018-12-17T03:46:09.741Z,102.80
2018-12-17T03:48:40.281Z,98.03
2018-12-17T03:51:10.849Z,96.97
2018-12-17T03:53:41.374Z,103.27
2018-12-17T03:56:11.931Z,85.53
2018-12-17T03:58:42.454Z,78.53
2018-12-17T04:01:12.932Z,76.20
2018-12-17T04:03:43.466Z,73.40
2018-12-17T04:06:13.943Z,78.53
2018-12-17T04:08:44.482Z,88.17
2018-12-17T04:11:15.039Z,90.53
2018-12-17T04:13:45.584Z,86.67
2018-12-17T04:16:16.154Z,91.63
2018-12-17T04:18:46.692Z,95.87
2018-12-17T04:21:17.323Z,99.73
2018-12-17T04:23:47.856Z,94.17
2018-12-17T04:26:20.395Z,87.93
2018-12-17T04:28:50.904Z,76.03
2018-12-17T04:31:21.481Z,71.70
2018-12-17T04:33:52.091Z,73.47
2018-12-17T04:36:22.681Z,76.90
2018-12-17T04:38:53.288Z,73.37
2018-12-17T04:41:23.912Z,67.43
2018-12-17T04:43:54.495Z,70.27
2018-12-17T04:46:25.150Z,71.83
2018-12-17T04:48:55.734Z,68.27
2018-12-17T04:51:26.394Z,72.70
2018-12-17T04:53:56.885Z,65.63
2018-12-17T04:56:27.438Z,71.17
2018-12-17T04:58:57.945Z,72.17
2018-12-17T05:01:28.521Z,71.53
2018-12-17T05:03:59.057Z,78.70
2018-12-17T05:06:29.660Z,86.33
2018-12-17T05:09:00.282Z,79.97
2018-12-17T05:11:30.975Z,81.13
2018-12-17T05:14:01.736Z,84.57
2018-12-17T05:16:33.354Z,81.00
2018-12-17T05:19:03.858Z,69.43
2018-12-17T05:21:34.444Z,63.47
2018-12-17T05:24:04.958Z,69.43
2018-12-17T05:26:35.515Z,71.23
2018-12-17T05:29:06.111Z,72.43
2018-12-17T05:31:36.719Z,75.97
2018-12-17T05:34:07.267Z,75.33
2018-12-17T05:36:37.774Z,68.97
2018-12-17T05:39:08.686Z,69.60
2018-12-17T05:41:39.339Z,63.80
2018-12-17T05:44:09.881Z,66.63
2018-12-17T05:46:40.489Z,63.07
2018-12-17T05:49:11.255Z,64.07
2018-12-17T05:51:41.821Z,67.40
2018-12-17T05:54:12.503Z,63.83
2018-12-17T05:56:43.130Z,70.97
2018-12-17T05:59:13.650Z,63.43
2018-12-17T06:01:44.255Z,61.90
2018-12-17T06:04:14.853Z,60.70
2018-12-17T06:06:45.452Z,64.10
2018-12-17T06:09:16.698Z,66.83
2018-12-17T06:11:47.345Z,61.53
2018-12-17T06:14:17.946Z,60.27
2018-12-17T06:16:48.510Z,67.83
2018-12-17T06:19:19.194Z,68.47
2018-12-17T06:21:49.742Z,79.27
2018-12-17T06:24:20.888Z,75.93
2018-12-17T06:26:51.382Z,81.73
2018-12-17T06:29:21.931Z,75.47
2018-12-17T06:31:52.505Z,90.17
2018-12-17T06:34:26.098Z,86.47
2018-12-17T06:36:57.897Z,104.30
2018-12-17T06:39:28.395Z,168.87
2018-12-17T06:41:58.966Z,154.07
2018-12-17T06:44:29.527Z,147.57
2018-12-17T06:47:00.145Z,100.17
2018-12-17T06:49:30.714Z,83.67
2018-12-17T06:52:01.409Z,95.13
2018-12-17T06:54:31.995Z,139.80
2018-12-17T06:57:02.586Z,154.37
2018-12-17T06:59:33.153Z,218.37
2018-12-17T07:02:04.142Z,236.33
2018-12-17T07:04:34.663Z,203.43
2018-12-17T07:07:05.211Z,237.67
2018-12-17T07:09:35.701Z,257.97
2018-12-17T07:12:06.274Z,249.67
2018-12-17T07:14:36.868Z,139.20
2018-12-17T07:17:07.500Z,120.50
2018-12-17T07:19:38.136Z,215.40
2018-12-17T07:22:08.732Z,231.57
2018-12-17T07:24:39.333Z,252.63
2018-12-17T07:27:09.924Z,233.30
2018-12-17T07:29:40.513Z,235.00
2018-12-17T07:32:11.080Z,248.07
2018-12-17T07:34:42.089Z,234.50
2018-12-17T07:37:12.704Z,210.97
2018-12-17T07:39:43.598Z,190.10
2018-12-17T07:42:14.117Z,174.73
2018-12-17T07:44:44.610Z,158.10
2018-12-17T07:47:15.180Z,167.90
2018-12-17T07:49:45.707Z,143.77
2018-12-17T07:52:16.242Z,125.77
2018-12-17T07:54:46.834Z,113.73
2018-12-17T07:57:17.296Z,111.07
2018-12-17T07:59:47.945Z,115.00
2018-12-17T08:02:18.546Z,112.70
2018-12-17T08:04:49.130Z,115.27
2018-12-17T08:07:19.675Z,87.73
2018-12-17T08:09:50.207Z,94.73
2018-12-17T08:12:20.718Z,82.53
2018-12-17T08:14:51.484Z,82.67
2018-12-17T08:17:21.994Z,78.97
2018-12-17T08:19:52.630Z,82.93
2018-12-17T08:22:23.355Z,85.37
2018-12-17T08:24:53.846Z,80.77
2018-12-17T08:27:24.314Z,82.50
2018-12-17T08:29:54.863Z,80.50
2018-12-17T08:32:25.486Z,67.03
2018-12-17T08:34:55.984Z,72.90
2018-12-17T08:37:26.482Z,77.67
2018-12-17T08:39:56.975Z,84.67
2018-12-17T08:42:27.509Z,78.30
2018-12-17T08:44:58.018Z,93.33
2018-12-17T08:47:28.529Z,93.97
2018-12-17T08:49:59.015Z,97.20
2018-12-17T08:52:30.443Z,100.50
2018-12-17T08:55:01.212Z,86.97
2018-12-17T08:57:37.817Z,92.70
2018-12-17T09:00:10.775Z,82.07
2018-12-17T09:02:37.277Z,81.53
2018-12-17T09:05:07.802Z,87.37
2018-12-17T09:07:38.572Z,86.10
2018-12-17T09:10:09.576Z,113.67
2018-12-17T09:12:40.088Z,84.97
2018-12-17T09:15:10.584Z,83.90
2018-12-17T09:17:41.170Z,85.97
2018-12-17T09:20:11.673Z,88.30
2018-12-17T09:22:42.220Z,79.07
2018-12-17T09:25:12.729Z,81.57
2018-12-17T09:27:43.356Z,79.17
2018-12-17T09:30:20.591Z,80.60
2018-12-17T09:32:51.332Z,74.87
2018-12-17T09:35:21.815Z,78.20
2018-12-17T09:37:52.337Z,79.27
2018-12-17T09:40:22.824Z,82.77
2018-12-17T09:42:53.417Z,78.90
2018-12-17T09:45:23.925Z,80.40
2018-12-17T09:47:54.452Z,80.33
2018-12-17T09:50:24.994Z,87.17
2018-12-17T09:52:55.555Z,79.10
2018-12-17T09:55:26.274Z,77.83
2018-12-17T09:57:56.785Z,123.37
2018-12-17T10:00:27.830Z,227.57
2018-12-17T10:02:58.323Z,134.30
2018-12-17T10:05:28.878Z,118.33
2018-12-17T10:08:00.562Z,97.33
2018-12-17T10:10:31.426Z,102.90
2018-12-17T10:13:02.295Z,96.00
2018-12-17T10:15:32.986Z,83.60
2018-12-17T10:18:03.785Z,75.07
2018-12-17T10:20:39.007Z,86.77
2018-12-17T10:23:10.827Z,83.63
2018-12-17T10:25:42.396Z,85.50
2018-12-17T10:28:12.931Z,91.13
2018-12-17T10:30:43.757Z,86.13
2018-12-17T10:33:14.223Z,86.53
2018-12-17T10:35:44.791Z,80.97
2018-12-17T10:38:15.399Z,85.47
2018-12-17T10:40:45.966Z,75.70
2018-12-17T10:43:16.655Z,86.63
2018-12-17T10:45:47.186Z,85.80
2018-12-17T10:48:17.815Z,81.70
2018-12-17T10:50:49.417Z,85.50
2018-12-17T10:53:19.949Z,81.73
2018-12-17T10:55:50.550Z,83.57
2018-12-17T10:58:21.122Z,82.10
2018-12-17T11:00:56.819Z,86.20
2018-12-17T11:03:31.532Z,79.87
2018-12-17T11:06:05.672Z,78.10
2018-12-17T11:08:36.323Z,87.97
2018-12-17T11:11:06.855Z,87.53
2018-12-17T11:13:37.978Z,85.43
2018-12-17T11:16:08.598Z,87.23
2018-12-17T11:18:39.280Z,92.90
2018-12-17T11:21:09.901Z,95.67
2018-12-17T11:23:40.488Z,96.60
2018-12-17T11:26:10.997Z,90.93
2018-12-17T11:28:41.883Z,94.50
2018-12-17T11:31:12.385Z,90.10
2018-12-17T11:33:42.996Z,88.30
2018-12-17T11:36:14.108Z,93.90
2018-12-17T11:38:44.634Z,107.53
2018-12-17T11:41:16.257Z,108.63
2018-12-17T11:43:46.823Z,104.30
2018-12-17T11:46:18.834Z,106.50
2018-12-17T11:48:49.455Z,111.60
2018-12-17T11:51:19.950Z,117.90
2018-12-17T11:53:50.463Z,100.00
2018-12-17T11:56:21.933Z,99.13
2018-12-17T11:58:52.437Z,103.10
2018-12-17T12:01:25.929Z,104.90
2018-12-17T12:03:56.532Z,108.20
2018-12-17T12:06:27.069Z,115.73
2018-12-17T12:08:57.595Z,104.87
2018-12-17T12:11:28.093Z,104.37
2018-12-17T12:13:58.702Z,92.67
2018-12-17T12:16:29.191Z,94.17
2018-12-17T12:18:59.695Z,90.30
2018-12-17T12:21:30.263Z,89.60
2018-12-17T12:24:00.892Z,90.60
2018-12-17T12:26:31.510Z,91.37
2018-12-17T12:29:03.469Z,110.43
2018-12-17T12:31:34.833Z,102.87
2018-12-17T12:34:05.635Z,93.73
2018-12-17T12:36:36.114Z,92.17
2018-12-17T12:39:08.766Z,90.57
2018-12-17T12:41:42.179Z,94.70
2018-12-17T12:44:12.825Z,89.87
2018-12-17T12:46:43.386Z,84.53
2018-12-17T12:49:15.016Z,89.27
2018-12-17T12:51:45.509Z,97.17
2018-12-17T12:54:16.080Z,98.70
2018-12-17T12:56:46.735Z,112.67
2018-12-17T12:59:17.464Z,101.50
2018-12-17T13:01:47.970Z,101.83
2018-12-17T13:04:18.579Z,109.90
2018-12-17T13:06:49.219Z,120.57
2018-12-17T13:09:22.864Z,111.23
2018-12-17T13:11:53.414Z,100.80
2018-12-17T13:14:24.038Z,102.70
2018-12-17T13:17:05.481Z,96.30
2018-12-17T13:19:35.930Z,95.77
2018-12-17T13:22:06.453Z,98.30
2018-12-17T13:24:36.934Z,98.23
2018-12-17T13:27:07.485Z,98.33
2018-12-17T13:29:38.073Z,100.43
2018-12-17T13:32:08.602Z,157.77
2018-12-17T13:34:39.103Z,124.60
2018-12-17T13:37:09.581Z,159.50
2018-12-17T13:39:41.021Z,130.57
2018-12-17T13:42:12.776Z,107.93
2018-12-17T13:44:43.329Z,107.70
2018-12-17T13:47:13.845Z,100.90
2018-12-17T13:49:51.805Z,103.10
2018-12-17T13:52:27.534Z,101.17
2018-12-17T13:54:58.097Z,97.10
2018-12-17T13:57:28.615Z,102.73
2018-12-17T13:59:59.103Z,110.70
2018-12-17T14:02:29.580Z,94.33
2018-12-17T14:05:00.090Z,100.93
2018-12-17T14:07:30.641Z,108.33
2018-12-17T14:11:06.523Z,107.87
2018-12-17T14:13:37.017Z,112.13
2018-12-17T14:16:12.831Z,107.00
2018-12-17T14:18:49.658Z,107.40
2018-12-17T14:21:25.303Z,106.60
2018-12-17T14:23:57.423Z,101.20
2018-12-17T14:26:28.142Z,104.67
2018-12-17T14:28:58.945Z,109.40
2018-12-17T14:31:33.020Z,108.67
2018-12-17T14:34:03.990Z,117.27
2018-12-17T14:36:34.538Z,127.90
2018-12-17T14:39:06.822Z,133.67
2018-12-17T14:41:38.830Z,113.83
2018-12-17T14:44:14.495Z,124.50
2018-12-17T14:46:50.247Z,114.47
2018-12-17T14:49:21.116Z,135.23
2018-12-17T14:51:51.741Z,150.40
2018-12-17T14:54:22.237Z,128.73
2018-12-17T14:56:52.774Z,150.20
2018-12-17T14:59:24.041Z,143.97
2018-12-17T15:01:54.560Z,122.10
2018-12-17T15:04:25.073Z,108.30
2018-12-17T15:06:55.589Z,116.03
2018-12-17T15:09:26.114Z,149.20
2018-12-17T15:11:56.661Z,155.17
2018-12-17T15:14:27.284Z,153.27
2018-12-17T15:16:57.794Z,182.80
2018-12-17T15:19:28.297Z,171.20
2018-12-17T15:21:58.785Z,205.17
2018-12-17T15:24:29.306Z,236.93
2018-12-17T15:26:59.870Z,252.67
2018-12-17T15:29:30.449Z,209.27
2018-12-17T15:32:03.832Z,190.27
2018-12-17T15:34:34.494Z,143.10
2018-12-17T15:37:06.858Z,145.80
2018-12-17T15:39:37.570Z,149.27
2018-12-17T15:42:08.537Z,111.53
2018-12-17T15:44:39.144Z,130.33
2018-12-17T15:47:09.779Z,130.77
2018-12-17T15:49:40.369Z,140.77
2018-12-17T15:52:10.897Z,167.30
2018-12-17T15:54:41.582Z,151.90
2018-12-17T15:57:12.286Z,129.00
2018-12-17T15:59:42.937Z,110.50
2018-12-17T16:02:13.513Z,96.83
2018-12-17T16:04:44.086Z,94.27
2018-12-17T16:07:14.724Z,103.53
2018-12-17T16:09:54.376Z,96.83
2018-12-17T16:12:25.257Z,94.63
2018-12-17T16:14:55.886Z,95.27
2018-12-17T16:17:26.551Z,95.53
2018-12-17T16:19:57.233Z,97.97
2018-12-17T16:22:28.079Z,94.83
2018-12-17T16:24:58.750Z,97.20
2018-12-17T16:27:29.736Z,97.37
2018-12-17T16:30:00.281Z,100.47
2018-12-17T16:32:30.838Z,91.03
2018-12-17T16:35:01.518Z,91.87
2018-12-17T16:37:32.410Z,94.47
2018-12-17T16:40:03.128Z,106.27
2018-12-17T16:42:33.694Z,117.50
2018-12-17T16:45:04.712Z,111.90
2018-12-17T16:47:35.172Z,113.10
2018-12-17T16:50:08.301Z,120.07
2018-12-17T16:52:39.110Z,113.23
2018-12-17T16:55:09.589Z,123.00
2018-12-17T16:57:40.371Z,119.17
2018-12-17T17:00:11.065Z,124.70
2018-12-17T17:02:42.209Z,127.47
2018-12-17T17:05:14.358Z,119.17
2018-12-17T17:07:44.977Z,124.00
2018-12-17T17:10:15.598Z,126.23
2018-12-17T17:12:46.132Z,125.70
2018-12-17T17:15:17.118Z,115.90
2018-12-17T17:17:47.664Z,129.20
2018-12-17T17:20:19.802Z,136.10
2018-12-17T17:22:50.849Z,133.60
2018-12-17T17:25:21.693Z,201.30
2018-12-17T17:27:52.303Z,363.30
2018-12-17T17:30:23.030Z,449.13
2018-12-17T17:32:54.213Z,291.20
2018-12-17T17:35:24.895Z,184.73
2018-12-17T17:37:55.496Z,158.33
2018-12-17T17:40:26.064Z,146.37
2018-12-17T17:42:56.701Z,120.07
2018-12-17T17:45:27.397Z,118.23
2018-12-17T17:47:58.132Z,117.87
2018-12-17T17:50:29.174Z,113.57
2018-12-17T17:52:59.763Z,125.13
2018-12-17T17:55:30.333Z,194.60
2018-12-17T17:58:00.878Z,153.23
2018-12-17T18:00:31.522Z,123.03
2018-12-17T18:03:02.102Z,120.90
2018-12-17T18:05:32.679Z,118.50
2018-12-17T21:02:08.563Z,228.37
2018-12-17T21:04:39.996Z,242.73
2018-12-17T21:07:11.518Z,333.70
2018-12-17T21:09:45.260Z,393.13
2018-12-17T21:12:16.309Z,573.27
2018-12-17T21:14:58.285Z,668.97
2018-12-17T21:33:50.885Z,579.70
2018-12-17T21:36:21.478Z,491.50
2018-12-17T21:42:02.695Z,341.40
2018-12-17T21:44:33.258Z,351.57
2018-12-17T21:47:03.977Z,398.43
2018-12-17T21:49:34.567Z,404.03
2018-12-17T21:52:05.241Z,339.97
2018-12-17T21:54:35.827Z,347.87
2018-12-17T21:57:06.481Z,320.47
2018-12-17T21:59:37.057Z,331.10
2018-12-17T22:02:07.868Z,295.67
2018-12-17T22:04:38.535Z,237.50
2018-12-17T22:07:10.485Z,204.80
2018-12-17T22:09:41.204Z,182.83
2018-12-17T22:12:11.671Z,183.00
2018-12-17T22:14:42.378Z,165.40
2018-12-17T22:17:13.114Z,215.77
2018-12-17T22:19:43.782Z,317.83
2018-12-17T22:22:14.705Z,359.73
2018-12-17T22:24:45.287Z,328.90
2018-12-17T22:27:15.837Z,270.93
2018-12-17T22:29:46.558Z,206.80
2018-12-17T22:32:17.175Z,211.03
2018-12-17T22:34:47.777Z,192.70
2018-12-17T22:37:18.330Z,221.73
2018-12-17T22:39:48.958Z,227.47
2018-12-17T22:42:19.525Z,210.50
2018-12-17T22:44:50.044Z,193.27
2018-12-17T22:47:20.754Z,200.27
2018-12-17T22:49:51.789Z,189.43
2018-12-17T22:52:22.324Z,196.13
2018-12-17T22:54:52.958Z,190.27
2018-12-17T22:57:23.488Z,184.83
2018-12-17T22:59:54.103Z,200.20
2018-12-17T23:02:24.629Z,206.00
2018-12-17T23:04:58.051Z,223.07
2018-12-17T23:07:32.872Z,202.57
2018-12-17T23:10:21.265Z,199.80
2018-12-17T23:13:08.664Z,197.70
2018-12-17T23:15:55.869Z,199.10
2018-12-17T23:21:06.927Z,241.17
2018-12-17T23:23:39.591Z,235.80
2018-12-17T23:26:11.409Z,236.73
2018-12-17T23:28:42.118Z,238.30
2018-12-17T23:31:12.702Z,226.43
2018-12-17T23:33:43.234Z,202.63
2018-12-17T23:36:13.763Z,205.30
2018-12-17T23:38:44.255Z,205.53
2018-12-17T23:41:14.795Z,207.90
2018-12-17T23:43:45.314Z,218.27
2018-12-17T23:46:15.857Z,214.13
2018-12-17T23:48:46.334Z,194.00
2018-12-17T23:51:17.298Z,232.27
2018-12-17T23:53:48.908Z,209.73
2018-12-17T23:56:19.614Z,212.50
2018-12-17T23:58:50.164Z,206.83
